Terminal Aerodrome Forecast
Issued by NWS

Home | Current Version | Previous Version | Text Only | Print | Product List | Glossary On
Versions: 1 2 3 4 5 6 7 8 9 10 11 12 13 14 15 16 17 18 19 20 21 22 23 24
000
FTUS41 KBUF 012300
TAFJHW
TAF
KJHW 012330Z 0200/0224 07008KT 1SM -SN OVC006
     FM020100 10012KT 1/4SM +SN BLSN OVC007
     FM020800 11011KT 1/4SM +SN OVC007
     FM021100 05006KT 1/4SM +SN OVC007
     FM021400 36013KT 1/4SM +SN BLSN OVC007
     FM021900 32017KT 1/4SM +SN BLSN OVC007
     FM022000 31016KT 2SM -SN BLSN OVC007
     FM022300 30012KT P6SM VCSH BKN007
      AMD LTD TO CLD VIS AND WIND=

USA.gov is the U.S. government's official web portal to all federal, state and local government web resources and services.